Date,TemperatureHighF,TemperatureAvgF,TemperatureLowF,DewpointHighF,DewpointAvgF,DewpointLowF,HumidityHigh,HumidityAvg,HumidityLow,PressureMaxIn,PressureMinIn,WindSpeedMaxMPH,WindSpeedAvgMPH,GustSpeedMaxMPH,PrecipitationSumIn
2013-1-1,47.8,42.7,38.1,46.4,40.2,36.1,96,91,80,30.08,29.58,10,5,21,0.04
2013-1-2,51.1,50.1,47.1,51.1,49.9,46.4,100,99,97,30.30,30.05,17,10,27,0.35
2013-1-3,51.4,50.8,49.8,51.3,50.5,49.8,100,99,96,30.52,30.31,19,10,28,0.21
2013-1-4,52.0,50.5,49.1,50.4,48.9,47.7,96,94,92,30.53,30.37,10,6,17,0.00
2013-1-5,53.1,49.9,46.4,51.8,48.7,45.9,99,96,92,30.42,30.27,12,6,22,0.16
2013-1-6,51.6,50.2,46.9,51.1,49.8,46.4,99,98,98,30.40,30.13,9,5,18,0.55
2013-1-7,52.7,51.6,50.2,52.3,51.3,50.0,99,99,99,30.12,29.91,9,5,17,0.78
2013-1-8,53.2,47.2,38.5,53.1,45.8,37.2,99,95,83,30.27,29.91,14,5,25,0.03
2013-1-9,42.6,39.7,36.5,41.9,39.1,36.0,99,98,95,30.25,30.02,6,3,12,0.01
2013-1-10,48.9,42.2,37.0,46.0,40.1,35.2,98,92,82,30.02,29.84,14,6,26,0.02
2013-1-11,49.6,41.7,38.3,47.7,40.9,37.0,99,97,93,30.02,29.82,11,5,20,0.02
2013-1-12,45.3,42.1,36.9,43.5,39.4,34.7,98,90,86,30.10,29.81,9,5,17,0.01
2013-1-13,47.5,39.8,31.3,45.9,38.2,30.0,99,94,87,30.19,30.10,7,2,11,0.02
2013-1-14,46.9,43.0,36.9,45.0,40.5,34.2,97,91,84,30.13,29.99,11,5,20,0.08
2013-1-15,43.5,39.7,36.0,41.5,37.6,34.0,97,92,87,30.01,29.67,6,3,14,0.20
2013-1-16,46.0,42.8,38.8,45.9,42.3,37.9,99,98,97,29.85,29.68,6,3,12,0.09
2013-1-17,48.7,45.7,43.5,47.8,44.8,43.2,99,97,92,29.85,29.31,14,5,26,0.39
2013-1-18,48.6,44.8,40.5,47.5,43.7,39.6,98,96,88,29.31,29.20,11,5,21,0.45
2013-1-19,42.8,38.0,33.3,40.6,36.6,32.4,98,95,91,29.58,29.26,5,2,13,0.01
2013-1-20,38.3,35.5,32.0,34.3,32.2,30.9,97,88,76,29.56,29.34,9,5,22,0.00
2013-1-21,40.3,36.1,29.8,35.6,33.3,28.6,95,89,81,29.40,29.34,5,2,11,0.00
2013-1-22,37.9,32.4,28.0,36.5,31.5,27.3,99,96,93,29.72,29.37,5,2,11,0.06
2013-1-23,40.6,36.6,33.1,37.4,34.7,31.8,97,93,87,29.85,29.65,7,3,19,0.00
2013-1-24,42.8,36.9,30.2,41.7,35.5,29.1,97,95,92,29.95,29.82,8,4,19,0.02
2013-1-25,49.1,45.1,40.5,48.6,43.7,37.0,98,95,83,29.82,29.37,12,7,26,0.57
2013-1-26,52.7,44.9,37.2,52.3,43.7,35.8,99,96,88,29.70,28.99,17,7,27,0.42
2013-1-27,46.0,41.4,38.7,45.5,38.6,35.6,98,90,80,29.45,28.97,23,14,49,0.43
2013-1-28,51.8,45.9,39.9,48.7,42.6,38.1,98,88,78,29.51,29.05,25,14,48,0.40
2013-1-29,55.0,49.2,43.9,54.0,46.5,42.6,98,90,85,29.33,29.10,22,13,37,0.20
2013-1-30,49.3,45.8,42.8,45.0,42.3,40.3,96,88,76,29.81,29.32,26,13,59,0.27
2013-1-31,50.4,46.3,43.0,45.1,41.6,39.0,88,84,78,29.76,29.47,26,16,49,0.14
2013-2-1,47.8,43.8,38.7,42.4,40.0,36.1,92,86,78,30.00,29.56,13,7,28,0.01
2013-2-2,47.3,41.8,33.6,44.6,38.6,32.0,97,89,74,30.30,30.01,11,3,23,0.05
2013-2-3,50.5,49.5,45.9,50.4,49.0,45.1,99,98,96,30.14,29.92,17,10,27,0.12
2013-2-4,47.5,42.3,36.1,41.9,38.2,32.5,92,85,77,30.02,29.75,20,14,46,0.14
2013-2-5,48.2,40.2,34.0,44.2,37.3,32.0,96,89,80,29.94,29.60,16,10,35,0.31
2013-2-6,45.7,40.6,36.9,40.5,37.0,33.8,94,87,79,30.35,29.94,11,5,26,0.04
2013-2-7,50.5,44.1,37.9,46.2,39.9,34.5,97,86,70,30.35,30.12,14,7,34,0.06
2013-2-8,51.6,45.9,42.8,45.7,42.7,38.7,96,89,77,30.36,30.25,12,6,17,0.02
2013-2-9,48.9,47.0,45.9,47.8,46.2,44.8,98,97,95,30.25,29.62,7,5,15,0.25
2013-2-10,47.3,44.3,41.0,47.1,43.5,40.1,99,97,93,29.61,29.38,8,5,16,0.06
2013-2-11,42.3,41.0,39.7,40.6,39.6,38.5,96,95,92,29.80,29.73,3,1,7,0.31
2013-2-12,45.9,41.6,39.7,44.2,40.6,38.8,98,96,93,29.95,29.80,11,3,18,0.08
2013-2-13,50.7,47.7,41.7,50.5,47.4,41.0,100,99,97,29.88,29.65,19,9,34,0.59
2013-2-14,51.3,45.1,41.4,46.2,43.0,39.7,98,92,78,30.08,29.71,11,6,20,0.04
2013-2-15,49.5,45.4,40.5,45.9,42.9,38.7,96,91,80,30.12,30.04,6,4,16,0.02
2013-2-16,49.1,48.0,46.9,47.8,46.1,44.6,98,93,85,30.05,29.89,13,6,27,0.02
2013-2-17,52.3,48.5,44.1,46.2,43.2,38.7,89,82,70,29.89,29.82,14,9,32,0.00
2013-2-18,50.5,45.5,41.2,43.9,40.2,37.4,91,82,69,30.00,29.86,10,6,24,0.00
2013-2-19,52.2,46.2,38.5,45.1,42.4,36.3,93,87,71,30.03,29.96,9,4,14,0.00
2013-2-20,50.2,41.0,33.6,43.2,37.5,32.9,97,88,73,30.03,29.98,10,5,22,0.01
2013-2-21,44.1,40.5,36.7,39.4,34.6,29.3,86,80,73,30.09,30.00,14,9,31,0.00
2013-2-22,38.8,36.1,34.2,30.2,27.8,26.6,77,72,66,30.28,30.09,11,5,23,0.00
2013-2-23,38.5,35.3,30.0,32.5,29.6,26.1,87,80,71,30.36,30.27,4,1,9,0.00
2013-2-24,44.4,35.3,27.1,32.9,29.2,25.7,96,79,57,30.48,30.34,6,2,14,0.00
2013-2-25,47.1,35.4,26.1,36.0,30.6,24.4,95,83,61,30.57,30.48,4,1,10,0.01
2013-2-26,46.0,38.1,29.8,39.2,35.1,28.9,97,89,77,30.66,30.57,7,2,14,0.00
2013-2-27,43.0,41.4,38.8,40.3,38.9,37.2,94,91,87,30.68,30.63,7,3,13,0.00
2013-2-28,44.2,39.1,35.4,41.2,37.4,33.6,96,93,87,30.63,30.52,8,4,15,0.01
2013-3-1,51.3,43.3,35.2,44.4,40.1,32.9,98,89,75,30.53,30.46,6,2,13,0.00
2013-3-2,47.5,39.6,32.0,38.1,35.4,30.9,97,86,67,30.49,30.30,6,1,11,0.00
2013-3-3,48.0,41.9,38.1,38.7,36.9,33.8,92,83,68,30.30,30.02,6,3,18,0.00
2013-3-4,43.7,41.1,38.5,40.8,37.8,34.0,92,88,82,30.02,29.70,8,3,14,0.00
2013-3-5,49.8,42.8,34.5,44.2,39.4,32.7,95,88,75,29.69,29.50,6,3,14,0.13
2013-3-6,50.4,46.4,42.3,48.2,44.9,40.5,97,94,91,29.50,29.36,8,5,17,0.13
2013-3-7,51.3,48.6,46.9,49.1,47.3,45.9,97,95,91,29.36,29.18,8,5,19,0.04
2013-3-8,56.5,51.2,48.0,53.2,49.1,46.0,97,92,84,29.40,29.15,8,6,23,0.07
2013-3-9,56.7,49.4,42.6,48.6,45.9,39.6,94,88,69,29.63,29.35,13,8,28,0.00
2013-3-10,42.4,39.8,33.3,39.6,35.0,27.3,89,83,71,29.96,29.63,15,11,30,0.00
2013-3-11,38.8,32.9,29.1,26.8,23.1,16.9,80,68,41,30.15,29.96,16,11,31,0.00
2013-3-12,46.0,35.6,26.1,37.4,28.3,21.2,94,75,55,30.18,30.06,7,4,16,0.00
2013-3-13,49.5,40.8,32.9,42.6,37.0,31.3,96,87,68,30.14,30.03,8,3,19,0.02
2013-3-14,50.7,43.5,35.2,44.1,39.9,33.4,95,87,71,30.14,29.67,16,7,29,0.12
2013-3-15,48.4,42.5,36.9,44.2,39.6,35.6,96,90,76,29.66,29.33,14,7,24,0.32
2013-3-16,48.0,38.1,30.9,40.1,34.6,30.2,99,88,62,29.39,29.28,7,3,16,0.02
2013-3-17,46.8,40.3,33.3,41.5,37.3,32.4,96,89,79,29.36,29.17,11,5,26,0.08
2013-3-18,46.8,40.0,33.3,39.7,36.3,32.7,98,87,65,29.49,29.20,8,3,17,0.01
2013-3-19,40.8,37.5,31.6,36.3,33.7,29.7,92,86,78,29.57,29.49,10,6,18,0.00
2013-3-20,46.6,39.9,30.7,36.1,33.9,28.9,95,80,63,29.81,29.57,4,2,9,0.00
2013-3-21,43.9,40.9,36.5,41.7,38.0,33.1,95,89,83,29.79,29.32,14,10,35,0.37
2013-3-22,49.8,46.6,43.5,48.2,45.3,42.1,97,95,91,29.53,29.25,15,10,33,0.24
2013-3-23,46.2,42.7,39.4,44.1,39.7,35.8,95,89,82,29.85,29.53,11,7,24,0.01
2013-3-24,39.4,37.7,36.7,35.8,33.1,31.5,88,84,77,30.02,29.85,11,7,26,0.00
2013-3-25,41.7,37.8,32.5,32.2,29.2,27.3,84,71,59,30.09,30.02,11,7,27,0.00
2013-3-26,40.6,35.2,31.6,32.9,30.5,28.4,92,83,69,30.10,30.03,9,6,19,0.00
2013-3-27,41.4,35.1,30.4,33.3,30.2,28.0,95,83,65,30.04,30.00,10,6,21,0.00
2013-3-28,42.4,35.2,28.0,31.3,28.2,26.1,95,77,56,30.02,29.83,10,6,23,0.01
2013-3-29,43.3,38.0,32.4,28.8,27.9,26.6,79,67,55,29.83,29.76,12,7,25,0.00
2013-3-30,46.8,38.9,31.1,30.0,28.2,25.7,81,66,51,29.91,29.83,10,5,21,0.00
2013-3-31,43.5,39.7,35.8,37.4,33.7,28.4,86,79,70,29.85,29.72,11,8,25,0.00
2013-4-1,44.8,39.8,36.0,33.1,30.4,28.0,81,69,56,29.88,29.72,13,9,31,0.00
2013-4-2,49.6,41.8,36.0,31.8,29.1,20.7,76,62,33,30.14,29.88,9,6,22,0.00
2013-4-3,50.5,39.9,30.2,34.7,28.6,23.9,92,67,40,30.23,30.14,9,5,22,0.00
2013-4-4,49.1,39.2,31.3,33.4,28.9,23.2,87,68,49,30.25,30.19,12,5,24,0.00
2013-4-5,50.7,40.9,31.8,36.9,32.4,28.8,88,73,48,30.27,30.21,8,3,16,0.00
2013-4-6,53.2,42.2,33.3,37.4,32.6,29.3,91,71,40,30.31,30.16,8,3,14,0.00
2013-4-7,47.8,42.8,37.4,37.6,34.8,32.4,84,74,60,30.16,29.74,11,6,23,0.00
2013-4-8,50.4,44.7,37.6,36.9,34.8,32.5,84,69,55,29.74,29.41,13,8,28,0.00
2013-4-9,47.5,43.5,38.3,36.9,35.5,34.3,86,74,63,29.59,29.41,11,7,24,0.00
2013-4-10,55.4,46.0,40.3,46.8,41.6,35.4,93,85,66,29.59,29.40,7,3,15,0.09
2013-4-11,54.5,47.3,43.3,48.2,44.8,42.3,97,91,73,29.39,29.22,7,4,17,0.37
2013-4-12,53.1,46.6,41.4,45.3,42.4,38.5,97,86,69,29.67,29.30,7,3,15,0.06
2013-4-13,54.9,45.7,37.2,52.7,43.9,36.1,97,94,86,29.66,29.26,11,5,27,0.30
2013-4-14,57.9,52.5,49.5,51.3,48.5,46.2,97,87,72,29.47,29.26,19,11,40,0.17
2013-4-15,59.5,51.4,48.4,49.6,47.7,44.8,97,88,65,29.74,29.31,19,11,37,0.19
2013-4-16,54.9,50.3,46.4,46.6,44.5,40.6,90,81,66,29.88,29.30,27,15,52,0.03
2013-4-17,58.6,51.6,46.2,54.3,49.1,41.9,98,91,75,29.82,29.08,19,10,33,1.00
2013-4-18,53.4,47.2,43.2,47.3,44.0,40.6,97,89,75,30.18,29.27,19,12,35,0.25
2013-4-19,54.5,48.3,42.4,46.9,43.4,40.3,94,84,68,30.45,30.19,14,7,21,0.01
2013-4-20,55.9,50.4,45.1,47.1,44.7,42.6,92,81,63,30.45,30.14,17,8,29,0.00
2013-4-21,54.1,48.8,45.3,48.2,44.6,42.1,95,86,67,30.13,29.98,15,9,30,0.39
2013-4-22,55.0,50.7,46.8,52.7,49.0,44.1,99,94,85,29.99,29.82,18,11,29,0.06
2013-4-23,57.4,52.6,49.5,52.7,50.0,48.4,97,91,78,30.15,29.97,15,8,22,0.04
2013-4-24,54.9,50.2,44.1,53.8,48.3,42.4,99,93,83,30.25,30.03,14,6,24,0.31
2013-4-25,55.6,46.9,41.2,46.9,42.5,38.1,98,86,59,30.24,30.16,13,5,21,0.12
2013-4-26,50.9,43.3,38.8,42.3,38.4,36.5,93,83,63,30.24,30.17,12,6,28,0.10
2013-4-27,54.3,46.8,40.3,41.2,38.7,36.0,89,74,55,30.25,30.14,8,6,18,0.00
2013-4-28,55.4,48.6,43.0,48.2,43.2,37.9,97,82,61,30.14,29.94,14,9,28,0.07
2013-4-29,55.8,47.2,40.5,44.8,40.6,37.4,91,79,58,30.30,29.98,13,7,26,0.06
2013-4-30,54.9,47.2,38.8,45.0,41.0,36.7,93,80,61,30.37,30.29,13,5,19,0.00
2013-5-1,57.6,51.8,47.3,48.0,43.9,38.1,94,76,50,30.31,30.25,10,5,16,0.00
2013-5-2,56.7,51.5,46.2,51.4,47.3,40.5,94,85,78,30.30,30.11,16,8,27,0.00
2013-5-3,53.8,51.2,48.7,51.3,49.8,47.8,97,95,91,30.10,29.85,18,12,35,0.39
2013-5-4,55.0,49.4,41.4,51.8,46.9,40.6,99,91,77,29.98,29.83,17,10,34,0.12
2013-5-5,57.9,53.2,51.4,53.1,51.1,49.5,99,93,82,30.05,29.96,17,11,30,0.18
2013-5-6,61.5,54.9,51.4,54.9,51.4,49.1,95,88,75,30.03,29.96,7,3,15,0.01
2013-5-7,61.7,55.2,48.7,52.9,50.5,46.8,94,85,67,29.98,29.60,13,5,25,0.06
2013-5-8,53.8,50.5,46.2,52.7,48.9,43.5,99,95,88,29.59,29.29,19,11,40,1.08
2013-5-9,55.0,50.2,46.2,49.3,46.3,44.1,97,87,70,29.63,29.11,19,11,39,0.69
2013-5-10,53.1,49.7,46.2,50.2,45.8,41.5,97,87,67,29.75,29.63,20,11,31,0.06
2013-5-11,54.0,49.3,45.3,48.7,43.7,39.7,97,82,63,30.01,29.72,15,9,29,0.13
2013-5-12,56.7,52.0,47.7,52.5,49.6,41.7,98,92,71,29.92,29.84,16,12,29,0.15
2013-5-13,53.2,46.8,41.4,45.1,41.5,38.8,93,82,60,29.86,29.75,17,11,31,0.22
2013-5-14,54.3,46.9,40.3,46.9,41.9,37.6,92,83,61,29.75,29.42,14,8,32,0.13
2013-5-15,52.3,46.8,44.1,45.3,41.5,37.0,91,82,58,29.63,29.55,12,7,28,0.10
2013-5-16,54.3,47.2,43.5,47.8,44.4,41.4,97,90,70,29.62,29.43,7,3,15,0.34
2013-5-17,61.5,50.5,44.4,47.5,45.0,41.2,97,83,48,29.99,29.63,11,4,31,0.06
2013-5-18,51.4,48.8,45.3,48.7,46.7,43.7,97,92,86,29.99,29.75,8,5,19,0.05
2013-5-19,58.6,52.8,48.2,53.1,50.0,47.3,98,91,79,30.08,29.76,6,2,10,0.00
2013-5-20,56.7,52.8,50.4,52.9,50.2,48.0,97,91,84,30.24,30.07,11,5,23,0.00
2013-5-21,63.1,54.2,49.5,52.9,48.8,45.9,94,82,64,30.27,30.20,11,5,22,0.00
2013-5-22,58.3,52.9,48.4,49.3,44.2,41.2,93,73,57,30.34,30.26,10,6,21,0.00
2013-5-23,55.8,50.6,46.2,42.1,39.9,38.1,78,67,54,30.30,30.20,11,7,22,0.00
2013-5-24,57.7,51.1,45.9,44.2,40.8,38.5,79,68,56,30.21,30.15,11,7,22,0.00
2013-5-25,56.7,53.6,51.4,52.7,50.2,46.0,96,89,72,30.19,30.17,9,5,14,0.06
2013-5-26,57.9,53.2,49.6,52.5,50.6,48.0,96,91,80,30.17,29.68,15,6,24,0.23
2013-5-27,55.9,50.9,47.1,48.6,46.6,45.0,97,86,71,29.67,29.43,16,10,27,0.21
2013-5-28,57.7,51.4,46.0,50.7,47.5,44.4,95,87,71,29.74,29.49,8,5,18,0.29
2013-5-29,68.2,59.7,46.8,53.6,48.8,44.6,96,69,50,30.11,29.74,11,6,21,0.00
2013-5-30,64.4,57.5,48.9,53.2,49.1,44.2,90,74,57,30.19,30.10,8,4,17,0.00
2013-5-31,60.6,55.6,50.2,53.2,48.5,42.1,94,78,52,30.33,30.17,7,4,16,0.00
2013-6-1,59.2,53.7,47.7,52.0,48.6,45.3,93,83,69,30.43,30.31,12,6,20,0.00
2013-6-2,58.3,53.9,48.0,55.0,51.3,46.6,97,91,75,30.48,30.41,10,6,17,0.00
2013-6-3,67.8,60.0,52.3,58.1,54.4,51.6,98,83,62,30.49,30.42,6,2,11,0.00
2013-6-4,73.2,63.9,53.2,56.7,52.2,47.3,93,68,41,30.43,30.23,6,2,14,0.00
2013-6-5,73.2,61.2,47.8,55.2,50.4,44.6,91,69,48,30.24,30.07,7,3,17,0.00
2013-6-6,72.9,62.8,50.7,55.2,51.6,47.3,90,68,49,30.23,30.12,7,3,16,0.00
2013-6-7,75.2,64.4,52.0,57.2,52.9,49.3,93,69,47,30.27,30.22,8,4,18,0.00
2013-6-8,75.7,65.0,53.1,55.9,52.5,47.5,95,67,38,30.26,30.07,4,2,11,0.00
2013-6-9,75.4,64.2,54.9,59.5,54.2,50.5,94,72,47,30.07,29.86,10,3,17,0.00
2013-6-10,60.3,57.3,52.9,54.0,51.8,49.1,88,82,74,29.88,29.68,14,8,27,0.02
2013-6-11,62.4,56.6,52.3,59.9,54.3,50.4,98,92,80,29.69,29.60,12,5,20,0.51
2013-6-12,63.3,55.3,47.8,55.4,51.2,46.8,98,87,61,29.72,29.55,7,3,14,0.24
2013-6-13,61.9,55.7,51.4,53.4,50.8,46.6,97,84,60,29.88,29.58,15,8,27,0.15
2013-6-14,58.5,53.6,47.8,55.2,51.2,46.2,96,91,82,29.84,29.47,12,6,26,0.33
2013-6-15,62.6,54.5,46.9,56.3,50.4,44.4,94,86,71,29.73,29.51,16,9,28,0.03
2013-6-16,61.3,55.9,52.2,55.0,52.7,49.8,98,89,70,29.91,29.73,11,3,18,0.08
2013-6-17,66.0,58.7,53.2,56.7,54.4,52.2,97,86,68,30.03,29.91,6,3,14,0.02
2013-6-18,66.4,59.1,52.2,58.3,53.4,47.1,96,82,64,30.06,29.98,11,4,18,0.00
2013-6-19,63.7,57.0,50.4,55.2,51.6,47.5,94,83,70,30.09,30.01,12,6,19,0.00
2013-6-20,64.6,59.1,55.6,59.9,54.8,51.8,95,86,68,30.01,29.80,10,4,17,0.02
2013-6-21,60.8,56.1,53.2,56.1,52.2,47.1,97,87,65,29.91,29.51,12,6,24,0.19
2013-6-22,61.0,56.5,52.3,55.9,53.0,50.4,95,88,76,29.73,29.41,18,12,34,0.10
2013-6-23,62.2,55.7,50.4,52.2,49.3,45.5,93,80,61,30.26,29.72,14,8,29,0.03
2013-6-24,62.8,56.2,48.7,51.4,48.6,45.3,93,77,57,30.29,30.25,10,5,18,0.00
2013-6-25,65.5,59.3,55.8,59.0,53.8,49.3,89,82,71,30.49,30.28,9,3,16,0.01
2013-6-26,65.3,58.5,52.9,54.0,51.3,48.4,91,78,60,30.54,30.48,11,3,17,0.00
2013-6-27,66.7,57.9,51.4,61.9,55.8,48.4,97,93,83,30.53,30.33,14,7,24,0.00
2013-6-28,63.3,57.7,53.8,61.0,56.0,51.1,99,94,85,30.33,30.18,16,8,25,0.02
2013-6-29,68.4,59.5,54.0,61.7,56.8,51.3,98,91,76,30.28,30.21,15,8,28,0.02
2013-6-30,58.8,57.2,53.8,57.9,53.8,49.1,98,89,75,30.25,30.04,17,11,32,0.05
2013-7-1,62.2,56.4,52.3,53.1,50.6,47.5,94,81,62,30.04,29.85,12,7,21,0.08
2013-7-2,59.5,55.5,52.2,59.0,54.2,50.4,98,95,91,29.85,29.48,14,8,26,0.28
2013-7-3,63.0,57.2,53.2,59.7,55.3,52.0,98,93,81,29.83,29.57,13,8,26,0.03
2013-7-4,61.0,58.2,55.6,59.7,54.4,51.3,99,87,74,30.26,29.78,15,10,29,0.17
2013-7-5,64.6,59.5,55.8,58.1,54.6,50.5,92,84,73,30.37,30.26,12,7,21,0.00
2013-7-6,64.9,59.3,54.7,60.3,56.2,50.9,98,90,81,30.48,30.32,12,6,21,0.02
2013-7-7,75.6,65.4,58.6,68.0,62.6,58.1,99,91,76,30.57,30.48,7,2,12,0.01
2013-7-8,83.8,72.4,60.1,67.6,64.0,59.2,98,77,54,30.57,30.46,6,2,12,0.00
2013-7-9,84.6,74.0,63.1,71.2,66.0,61.5,96,77,57,30.47,30.34,6,3,13,0.00
2013-7-10,83.8,72.6,60.6,68.9,64.0,59.5,96,76,51,30.37,30.26,5,3,14,0.00
2013-7-11,83.7,72.9,61.0,68.0,63.2,56.8,95,74,48,30.30,30.22,5,2,11,0.00
2013-7-12,74.7,68.3,62.2,67.6,63.9,57.0,96,86,77,30.30,30.24,12,4,18,0.00
2013-7-13,73.4,65.7,58.8,63.5,60.4,55.8,96,84,68,30.36,30.30,7,4,13,0.00
2013-7-14,70.5,61.9,54.1,62.6,56.5,51.6,96,83,56,30.34,30.25,14,4,21,0.00
2013-7-15,66.7,62.8,58.5,59.2,56.7,54.0,90,81,71,30.28,30.25,9,5,15,0.00
2013-7-16,72.7,66.0,62.2,63.7,61.4,58.6,94,86,63,30.28,30.23,10,6,18,0.00
2013-7-17,73.8,66.1,58.5,64.2,60.7,56.8,97,84,61,30.36,30.27,9,4,15,0.00
2013-7-18,80.6,69.5,61.0,67.3,63.3,59.4,97,82,58,30.38,30.30,5,2,11,0.00
2013-7-19,86.2,73.5,59.5,66.0,62.4,55.4,96,71,39,30.33,30.18,5,3,12,0.00
2013-7-20,86.9,75.7,63.1,66.2,61.5,57.9,90,64,40,30.22,30.10,9,3,18,0.00
2013-7-21,76.1,69.5,62.1,64.4,61.8,58.8,90,77,64,30.13,29.97,6,3,13,0.00
2013-7-22,74.7,67.8,62.1,66.0,62.2,57.9,91,82,71,29.99,29.85,8,3,15,0.01
2013-7-23,73.8,65.3,61.9,65.1,62.0,58.1,95,89,69,29.85,29.75,10,3,16,0.86
2013-7-24,67.8,63.1,60.8,63.5,61.1,59.4,97,93,83,29.77,29.68,13,6,27,0.31
2013-7-25,70.9,64.0,55.9,62.6,59.6,55.2,98,86,69,29.81,29.75,10,4,16,0.01
2013-7-26,75.4,65.3,57.9,61.7,58.7,55.6,96,81,53,29.82,29.76,8,2,15,0.01
2013-7-27,71.1,64.5,59.7,63.5,59.9,57.9,95,85,66,29.78,29.58,7,4,17,0.24
2013-7-28,72.1,64.2,58.3,61.9,59.3,56.7,96,85,66,29.58,29.50,7,3,14,0.00
2013-7-29,68.4,62.8,58.8,61.5,57.5,52.7,97,84,62,29.81,29.57,14,6,24,0.39
2013-7-30,67.5,61.0,56.7,60.4,56.2,54.5,96,85,67,29.88,29.75,16,7,27,0.55
2013-7-31,67.1,60.9,56.8,66.4,58.9,54.0,99,93,86,29.88,29.61,12,4,22,0.76
2013-8-1,68.5,65.6,63.1,66.6,64.2,59.5,98,95,88,29.61,29.39,11,6,21,0.72
2013-8-2,66.9,62.1,56.1,60.1,57.6,54.3,95,85,75,29.64,29.36,18,12,32,0.32
2013-8-3,65.7,59.5,54.7,59.5,55.5,53.2,96,87,72,29.87,29.64,13,7,23,0.20
2013-8-4,70.0,62.1,56.1,58.8,55.4,51.6,97,80,54,29.89,29.84,6,4,13,0.06
2013-8-5,66.0,58.8,50.7,55.4,52.8,48.7,95,81,60,29.98,29.86,9,4,16,0.00
2013-8-6,67.3,59.8,55.0,57.7,55.5,52.7,96,86,66,29.98,29.87,8,3,15,0.14
2013-8-7,70.5,61.4,53.8,60.1,56.0,52.7,98,84,62,30.05,29.89,6,1,9,0.00
2013-8-8,69.4,60.7,57.0,62.2,58.1,54.1,96,91,75,30.05,29.89,11,5,21,0.13
2013-8-9,64.9,59.9,56.1,56.3,53.3,50.7,93,79,63,30.22,29.98,10,6,22,0.00
2013-8-10,64.9,60.2,55.6,59.0,54.8,52.2,94,83,69,30.22,30.10,13,6,21,0.00
2013-8-11,63.7,58.0,54.3,55.8,53.0,49.6,93,84,69,30.10,30.06,12,7,21,0.01
2013-8-12,66.4,59.2,54.3,54.1,51.2,45.1,92,76,49,30.18,30.06,10,6,19,0.00
2013-8-13,65.7,61.0,57.2,58.5,56.5,54.1,95,85,73,30.20,30.10,9,5,15,0.00
2013-8-14,66.0,62.5,60.6,64.0,61.3,57.4,98,96,87,30.10,29.95,11,6,19,0.19
2013-8-15,68.2,62.9,55.0,66.6,61.5,53.1,98,95,86,29.96,29.78,12,7,23,0.23
2013-8-16,67.5,61.6,54.7,61.5,57.7,52.9,96,88,76,29.93,29.83,13,7,24,0.10
2013-8-17,65.7,61.6,55.2,63.3,58.8,52.7,98,91,76,29.83,29.52,13,8,26,0.20
2013-8-18,64.6,58.0,54.0,55.9,52.8,50.5,95,83,63,29.93,29.65,14,7,26,0.02
2013-8-19,66.7,60.5,53.4,58.3,55.6,50.7,94,84,66,30.26,29.93,15,8,25,0.02
2013-8-20,67.1,62.8,59.7,61.3,58.6,57.4,92,86,73,30.26,30.09,9,6,21,0.03
2013-8-21,57.9,57.6,57.0,56.5,56.2,55.9,96,95,94,30.13,30.12,5,3,9,0.08
2013-8-22,71.4,62.0,55.9,62.6,58.6,55.2,98,89,72,30.12,29.87,8,3,18,0.02
2013-8-23,65.5,60.6,53.4,61.3,56.7,47.7,98,87,68,30.02,29.81,10,6,23,0.30
2013-8-24,63.0,58.2,54.1,61.9,55.2,48.7,97,90,79,30.03,29.90,9,4,15,0.13
2013-8-25,64.0,59.7,55.2,57.4,56.0,54.1,96,88,77,30.22,30.00,5,2,13,0.02
2013-8-26,63.1,59.5,56.5,59.9,57.1,53.8,97,92,87,30.22,30.14,9,2,14,0.00
2013-8-27,67.1,61.0,54.1,62.4,58.1,51.3,98,91,76,30.28,30.13,7,4,19,0.01
2013-8-28,65.8,59.1,54.0,60.6,54.6,50.2,97,85,72,30.28,30.13,12,5,21,0.01
2013-8-29,65.3,61.2,58.8,61.0,59.6,58.1,98,95,83,30.13,30.08,11,7,21,0.05
2013-8-30,64.9,60.1,52.2,61.7,56.9,46.2,98,89,69,30.29,29.98,18,9,29,0.08
2013-8-31,63.9,57.2,53.2,53.4,49.9,46.0,84,77,62,30.50,30.29,11,5,18,0.00
2013-9-1,63.9,58.8,54.9,57.7,53.1,49.8,95,82,74,30.50,30.36,14,8,26,0.00
2013-9-2,63.1,61.4,59.2,62.4,60.5,57.7,99,97,95,30.36,30.31,13,9,23,0.06
2013-9-3,67.1,61.3,56.7,59.7,56.1,52.9,95,84,66,30.35,30.17,12,5,21,0.00
2013-9-4,70.9,60.0,53.1,61.5,56.1,51.4,96,87,69,30.17,29.92,13,6,22,0.10
2013-9-5,62.8,54.0,46.0,52.3,47.9,44.4,98,81,53,30.00,29.95,10,3,18,0.02
2013-9-6,60.4,52.8,46.4,49.5,47.0,44.4,94,81,61,30.00,29.93,10,5,23,0.09
2013-9-7,52.9,50.7,49.3,49.5,47.2,44.8,94,88,77,29.99,29.92,10,6,20,0.10
2013-9-8,59.4,54.3,49.5,51.3,48.6,46.6,93,82,68,29.98,29.92,9,4,15,0.00
2013-9-9,62.1,55.5,50.4,57.4,52.0,47.3,96,88,75,30.34,29.98,8,2,17,0.00
2013-9-10,62.2,55.8,50.0,54.3,51.3,47.8,94,85,72,30.41,30.34,7,3,14,0.00
2013-9-11,67.3,60.3,54.9,64.0,58.5,52.2,97,94,88,30.40,30.18,11,6,18,0.22
2013-9-12,64.4,60.1,52.7,64.0,59.3,50.7,99,97,91,30.18,30.03,11,6,21,0.13
2013-9-13,60.4,54.2,50.5,51.6,49.6,46.9,94,85,67,30.16,30.10,7,1,10,0.00
2013-9-14,62.1,54.8,48.9,53.2,49.8,47.3,96,84,65,30.17,30.00,12,3,22,0.00
2013-9-15,61.0,56.2,48.0,60.4,51.8,43.3,98,86,58,30.00,29.57,19,13,37,0.24
2013-9-16,57.6,50.5,45.7,47.8,44.9,42.4,92,81,61,29.75,29.64,16,9,32,0.14
2013-9-17,63.0,55.4,50.4,60.4,52.7,44.1,98,91,76,29.70,29.41,17,8,31,0.36
2013-9-18,60.1,53.3,47.8,51.3,48.0,45.1,97,83,62,29.91,29.54,11,5,24,0.06
2013-9-19,61.7,56.6,53.2,59.4,51.5,47.5,98,83,69,29.98,29.58,16,8,29,0.22
2013-9-20,64.8,58.3,53.2,56.8,52.4,47.7,93,81,70,30.04,29.98,11,4,20,0.00
2013-9-21,63.9,60.6,58.6,61.9,59.7,56.8,99,97,93,30.21,30.01,13,7,24,0.02
2013-9-22,72.7,64.2,59.7,63.7,60.7,59.2,98,89,71,30.27,30.20,10,6,18,0.00
2013-9-23,73.6,63.9,56.8,66.0,60.4,55.4,96,89,77,30.21,30.00,12,4,23,0.00
2013-9-24,65.8,62.1,59.4,62.2,59.4,57.0,95,91,86,30.00,29.89,9,2,17,0.00
2013-9-25,68.4,62.2,59.0,62.4,59.7,57.4,98,92,78,29.90,29.82,5,1,11,0.00
2013-9-26,67.5,61.5,57.6,62.2,59.2,56.8,98,92,81,29.92,29.87,5,2,12,0.02
2013-9-27,67.6,60.8,54.1,62.2,58.0,53.1,97,91,80,29.93,29.81,5,2,13,0.00
2013-9-28,67.8,61.1,55.0,61.2,57.3,53.2,94,88,77,29.81,29.67,7,3,14,0.01
2013-9-29,64.8,60.1,57.7,57.7,55.3,52.9,92,84,77,29.69,29.63,6,3,14,0.00
2013-9-30,63.0,59.7,57.6,59.2,57.0,52.7,95,91,83,29.63,29.53,9,6,21,0.03
2013-10-1,68.7,62.8,60.6,62.8,60.2,58.8,97,91,78,29.55,29.50,9,5,18,0.12
2013-10-2,69.3,63.2,60.6,62.1,60.0,58.6,97,90,72,29.50,29.45,10,6,20,0.08
2013-10-3,64.6,61.0,56.7,63.5,59.7,55.4,98,95,93,29.55,29.47,9,4,19,0.27
2013-10-4,63.0,57.6,54.7,59.7,55.3,50.5,98,92,82,29.94,29.55,10,4,16,0.02
2013-10-5,65.8,60.5,54.7,59.2,56.2,52.2,96,86,70,30.11,29.94,13,6,23,0.01
2013-10-6,63.0,61.2,58.6,62.8,60.4,55.6,99,97,88,30.11,30.07,11,7,20,0.31
2013-10-7,67.3,61.8,59.5,62.6,60.3,58.6,99,95,85,30.10,29.99,13,7,22,0.13
2013-10-8,61.5,57.4,54.1,59.0,55.0,51.3,98,92,80,30.34,30.10,10,4,18,0.02
2013-10-9,56.7,52.4,47.5,53.4,47.3,41.4,94,83,63,30.37,30.27,11,6,25,0.00
2013-10-10,55.6,48.3,42.3,45.9,42.3,39.0,92,80,62,30.45,30.37,10,4,21,0.00
2013-10-11,57.4,46.5,37.0,48.9,42.5,35.6,95,86,71,30.44,30.37,8,3,18,0.00
2013-10-12,53.1,48.8,42.4,49.8,46.6,41.2,97,92,86,30.39,30.19,7,3,13,0.00
2013-10-13,57.9,52.1,48.4,51.3,49.2,45.9,97,90,76,30.19,30.01,6,2,13,0.01
2013-10-14,57.7,49.6,44.4,51.3,45.8,41.5,97,87,67,30.02,29.88,6,2,12,0.01
2013-10-15,58.8,48.9,40.5,51.1,45.5,39.0,98,89,74,29.89,29.76,8,3,17,0.00
2013-10-16,60.4,55.1,51.8,56.3,52.4,48.7,98,91,82,29.76,29.53,14,6,26,0.35
2013-10-17,64.4,58.3,55.0,58.8,55.9,53.1,97,92,81,29.83,29.70,7,5,14,0.01
2013-10-18,59.9,57.5,56.1,58.1,55.9,53.4,96,94,89,29.80,29.41,13,6,27,0.11
2013-10-19,63.0,57.4,53.4,57.9,55.4,50.7,98,93,79,29.41,29.31,7,5,19,0.02
2013-10-20,60.6,55.1,52.2,57.2,53.4,50.5,98,94,82,29.50,29.20,12,5,18,0.28
2013-10-21,58.1,54.1,49.3,57.7,53.5,48.4,99,98,96,29.50,29.11,9,4,22,0.24
2013-10-22,61.2,56.7,53.2,58.1,55.6,52.7,99,96,87,29.12,29.00,9,5,17,0.24
2013-10-23,55.8,50.2,44.1,52.7,46.1,40.8,98,86,69,29.72,29.04,10,6,22,0.08
2013-10-24,59.7,51.4,42.6,56.3,50.0,40.8,98,95,88,29.77,29.49,7,3,18,0.09
2013-10-25,62.2,56.5,51.4,58.1,55.1,49.8,98,95,83,29.52,29.28,10,5,20,0.18
2013-10-26,56.5,53.1,50.9,52.5,50.3,48.4,97,90,81,29.52,29.08,14,8,27,0.29
2013-10-27,56.8,53.3,50.2,53.2,49.9,47.3,94,88,82,29.14,28.95,22,14,41,0.45
2013-10-28,53.8,48.7,44.8,48.7,45.7,42.3,94,90,75,29.67,29.03,15,7,25,0.06
2013-10-29,54.3,47.4,43.0,47.1,42.9,40.1,94,85,66,30.00,29.67,11,5,21,0.01
2013-10-30,57.0,51.0,46.8,54.3,48.0,44.2,95,90,77,29.97,29.63,15,8,32,0.18
2013-10-31,55.0,50.9,47.1,52.3,47.6,43.5,93,89,80,29.90,29.73,19,10,36,0.35
2013-11-1,53.6,47.3,41.5,47.7,43.8,37.9,95,88,73,29.77,29.53,10,4,16,0.09
2013-11-2,50.5,46.0,43.3,47.5,43.5,39.6,96,91,84,29.53,28.86,20,10,42,0.17
2013-11-3,52.7,45.8,39.6,46.6,42.5,38.1,95,88,73,29.53,29.30,11,4,19,0.01
2013-11-4,51.6,41.8,32.5,50.2,39.9,31.5,99,93,78,29.48,29.24,15,4,28,0.05
2013-11-5,49.8,47.3,44.4,49.3,45.0,43.0,98,92,82,29.44,29.22,13,6,25,0.17
2013-11-6,48.4,45.7,41.0,47.3,44.3,39.2,97,95,93,29.57,29.39,11,4,23,0.16
2013-11-7,53.2,47.2,40.5,46.9,43.3,38.8,95,87,75,29.60,29.51,21,9,38,0.31
2013-11-8,47.5,43.9,40.6,45.0,41.5,37.4,97,91,84,29.65,29.55,12,4,20,0.20
2013-11-9,49.1,43.7,39.2,44.1,41.0,37.2,95,90,80,29.80,29.58,10,4,16,0.08
2013-11-10,55.6,45.4,38.5,55.2,44.3,36.9,99,96,93,30.05,29.80,11,5,22,0.43
2013-11-11,55.8,53.1,48.0,55.4,51.8,46.0,99,96,89,30.21,29.84,11,6,20,0.26
2013-11-12,53.2,46.9,43.2,46.8,43.2,39.9,95,87,70,30.54,30.20,10,5,17,0.01
2013-11-13,53.1,48.4,43.5,52.0,45.3,39.9,97,89,81,30.53,30.11,16,9,31,0.36
2013-11-14,52.9,47.9,44.4,44.2,42.4,39.9,90,81,70,30.64,30.29,13,6,30,0.02
2013-11-15,53.2,50.8,47.8,49.5,47.1,43.2,89,87,84,30.63,30.50,7,4,15,0.00
2013-11-16,54.9,52.9,49.6,53.2,50.6,48.4,98,92,86,30.50,30.38,10,6,17,0.08
2013-11-17,54.1,49.4,46.0,54.0,49.0,45.7,100,99,98,30.39,30.02,12,4,24,0.66
2013-11-18,46.9,42.2,36.0,45.7,40.6,33.8,99,94,85,30.08,29.95,10,4,24,0.05
2013-11-19,46.6,40.7,34.2,44.8,37.1,32.0,95,87,70,30.22,30.01,14,5,23,0.02
2013-11-20,47.8,45.1,41.2,45.1,41.1,36.3,94,86,73,30.01,29.84,12,8,29,0.07
2013-11-21,45.3,40.8,36.5,37.9,36.2,33.6,93,84,68,30.19,29.99,12,6,27,0.00
2013-11-22,45.1,37.7,31.5,39.6,35.2,29.7,97,91,77,30.35,30.19,6,2,11,0.00
2013-11-23,46.8,40.6,31.5,46.2,39.9,29.8,99,97,94,30.50,30.35,4,1,9,0.01
2013-11-24,46.6,44.5,42.1,46.2,44.2,41.7,99,99,98,30.69,30.50,3,1,7,0.01
2013-11-25,48.4,45.1,43.0,45.1,43.5,42.4,99,94,85,30.81,30.68,4,1,6,0.00
2013-11-26,52.3,46.5,42.6,47.5,44.3,40.6,97,92,80,30.80,30.71,7,3,12,0.00
2013-11-27,52.2,49.7,47.8,48.2,46.4,44.2,96,88,83,30.71,30.64,5,3,9,0.00
2013-11-28,51.8,49.5,47.7,50.5,47.4,44.2,96,93,83,30.67,30.58,7,2,13,0.00
2013-11-29,51.3,49.0,46.0,49.5,44.2,40.6,94,84,72,30.58,30.47,12,6,20,0.00
2013-11-30,51.8,46.7,42.1,46.0,43.5,39.9,94,89,79,30.57,30.51,6,3,11,0.00
2013-12-1,50.2,47.5,45.3,48.0,44.9,41.4,97,91,80,30.61,30.54,5,2,10,0.00
2013-12-2,50.5,47.3,45.5,45.9,43.8,41.2,92,88,82,30.57,30.39,8,5,17,0.00
2013-12-3,52.2,48.5,42.1,51.1,47.0,41.0,97,94,91,30.39,30.25,12,6,21,0.39
2013-12-4,47.8,42.5,37.2,43.3,39.3,35.1,96,89,78,30.56,30.39,15,4,25,0.01
2013-12-5,50.5,48.0,43.2,49.1,44.2,41.0,95,87,79,30.44,30.24,22,12,40,0.08
2013-12-6,50.7,46.8,42.6,48.2,45.1,40.6,97,94,88,30.43,30.35,10,6,20,0.02
2013-12-7,52.0,49.1,45.3,50.4,47.0,42.8,96,92,89,30.35,30.12,12,7,21,0.08
2013-12-8,53.8,52.9,51.8,52.3,51.5,50.2,97,95,94,30.15,30.09,17,12,29,0.06
2013-12-9,53.2,51.4,49.3,51.8,48.8,45.5,95,91,83,30.17,30.05,14,9,23,0.00
2013-12-10,55.8,53.1,50.2,53.6,50.8,47.8,94,92,89,30.10,30.02,13,9,27,0.00
2013-12-11,54.7,52.5,50.7,52.5,49.4,47.5,94,89,85,30.11,29.87,16,10,31,0.02
2013-12-12,58.1,56.0,53.4,56.7,54.4,51.6,97,94,90,29.87,29.71,12,8,25,0.02
2013-12-13,55.9,49.4,43.5,54.0,45.6,38.1,96,87,77,30.00,29.62,20,11,37,0.10
2013-12-14,54.7,49.5,44.8,53.2,47.1,40.3,96,91,77,29.98,29.43,25,12,48,0.94
2013-12-15,50.4,46.8,43.3,47.5,44.0,38.8,96,90,80,29.88,29.55,15,8,31,0.30
2013-12-16,49.5,43.8,38.7,44.6,39.4,35.2,92,84,73,30.06,29.57,17,7,31,0.20
2013-12-17,48.4,44.7,39.7,46.4,41.1,37.4,95,87,82,30.10,29.52,19,11,35,0.11
2013-12-18,52.5,48.1,39.6,51.3,45.3,34.7,97,90,74,29.52,28.75,34,14,60,0.57
2013-12-19,43.0,39.4,35.4,39.0,36.2,33.1,94,88,72,29.72,29.12,18,9,33,0.28
2013-12-20,53.2,47.7,40.6,52.0,45.2,38.3,98,91,80,29.81,29.42,23,13,41,0.63
2013-12-21,50.5,46.1,40.1,45.5,42.1,37.4,94,86,76,29.57,29.38,21,13,35,0.57
2013-12-22,45.3,40.0,36.3,40.8,37.0,33.8,96,89,78,29.66,29.42,20,10,36,0.61
2013-12-23,51.6,45.9,38.7,50.7,43.5,35.8,98,91,78,29.59,28.35,26,13,48,0.39
2013-12-24,44.2,40.9,37.4,40.6,36.6,30.4,97,85,61,28.73,28.33,31,14,58,0.65
2013-12-25,46.6,41.0,37.4,41.7,37.8,34.5,95,88,81,29.14,28.73,10,4,19,0.04
2013-12-26,49.6,41.8,36.3,47.8,39.9,34.5,97,93,82,29.35,28.25,31,10,57,0.48
2013-12-27,48.6,44.2,39.4,46.2,42.0,37.8,96,92,87,29.08,28.20,33,17,56,0.61
2013-12-28,46.8,40.1,37.0,43.0,37.8,35.2,96,91,80,29.76,29.09,9,5,18,0.02
2013-12-29,49.1,42.8,37.8,48.2,41.0,34.0,98,93,86,29.83,29.41,16,8,32,0.51
2013-12-30,48.0,44.4,41.2,45.5,42.6,40.1,98,93,81,29.58,29.21,15,6,31,0.23
2013-12-31,47.8,43.0,39.9,45.7,40.4,37.4,96,91,77,29.24,29.07,18,9,37,0.27
2014-1-1,43.3,42.0,39.7,42.4,40.8,38.3,97,96,92,29.17,28.72,12,6,21,0.13
2014-1-2,47.8,45.5,40.5,45.9,42.8,38.8,96,90,78,29.12,28.65,19,9,40,0.10